createdAt,value
2019-01-20T06:33:12.609Z,0.00
2019-01-20T06:34:12.607Z,0.00
2019-01-20T06:35:12.606Z,0.00
2019-01-20T06:36:12.604Z,0.00
2019-01-20T06:37:12.601Z,0.00
2019-01-20T06:38:12.598Z,0.00
2019-01-20T06:39:12.596Z,0.00
2019-01-20T06:40:12.596Z,0.00
2019-01-20T06:41:12.595Z,0.00
2019-01-20T06:42:12.593Z,0.00
2019-01-20T06:43:12.592Z,0.00
2019-01-20T06:44:12.591Z,0.00
2019-01-20T06:45:12.591Z,0.00
2019-01-20T06:46:12.590Z,0.00
2019-01-20T06:47:12.590Z,0.00
2019-01-20T06:48:12.586Z,0.00
2019-01-20T06:49:12.589Z,0.00
2019-01-20T06:50:12.586Z,0.00
2019-01-20T06:51:12.589Z,0.00
2019-01-20T06:52:12.585Z,0.00
2019-01-20T06:53:12.584Z,0.00
2019-01-20T06:54:12.582Z,0.00
2019-01-20T06:55:12.582Z,0.00
2019-01-20T06:56:12.583Z,0.00
2019-01-20T06:57:12.579Z,0.00
2019-01-20T06:58:12.593Z,0.00
2019-01-20T06:59:12.577Z,0.00
2019-01-20T07:00:12.595Z,0.00
2019-01-20T07:01:12.578Z,0.00
2019-01-20T07:02:12.576Z,0.00
2019-01-20T07:03:12.576Z,0.00
2019-01-20T07:04:12.576Z,0.00
2019-01-20T07:05:12.576Z,0.00
2019-01-20T07:06:12.573Z,0.00
2019-01-20T07:07:12.573Z,0.00
2019-01-20T07:08:12.575Z,0.00
2019-01-20T07:09:12.572Z,0.00
2019-01-20T07:10:12.573Z,0.00
2019-01-20T07:11:12.594Z,0.00
2019-01-20T07:12:12.570Z,0.00
2019-01-20T07:13:12.570Z,0.00
2019-01-20T07:14:12.569Z,0.00
2019-01-20T07:15:12.568Z,0.00
2019-01-20T07:16:12.631Z,0.00
2019-01-20T07:17:12.565Z,0.00
2019-01-20T07:18:12.565Z,0.00
2019-01-20T07:19:12.569Z,0.00
2019-01-20T07:20:12.570Z,0.00
2019-01-20T07:21:12.564Z,0.00
2019-01-20T07:22:12.563Z,0.00
2019-01-20T07:23:12.562Z,0.00
2019-01-20T07:24:12.563Z,0.00
2019-01-20T07:25:12.560Z,0.00
2019-01-20T07:26:12.560Z,0.00
2019-01-20T07:27:12.560Z,0.00
2019-01-20T07:28:12.559Z,0.00
2019-01-20T07:29:12.558Z,0.00
2019-01-20T07:30:12.558Z,0.00
2019-01-20T07:31:12.557Z,0.00
2019-01-20T07:32:12.559Z,0.00
2019-01-20T07:33:12.556Z,0.00
2019-01-20T07:34:12.559Z,0.00
2019-01-20T07:35:12.555Z,0.00
2019-01-20T07:36:12.554Z,0.00
2019-01-20T07:37:12.553Z,0.00
2019-01-20T07:38:12.550Z,0.00
2019-01-20T07:39:12.550Z,0.00
2019-01-20T07:40:12.551Z,0.00
2019-01-20T07:41:12.548Z,0.00
2019-01-20T07:42:12.544Z,0.00
2019-01-20T07:43:16.858Z,0.00
2019-01-20T07:44:12.544Z,0.00
2019-01-20T07:45:12.548Z,0.00
2019-01-20T07:46:12.540Z,0.00
2019-01-20T07:47:12.539Z,0.00
2019-01-20T07:48:12.542Z,0.00
2019-01-20T07:49:12.539Z,0.00
2019-01-20T07:50:12.539Z,0.00
2019-01-20T07:51:12.536Z,0.00
2019-01-20T07:52:12.535Z,0.00
2019-01-20T07:53:12.535Z,0.00
2019-01-20T07:54:12.547Z,0.00
2019-01-20T07:55:12.532Z,0.00
2019-01-20T07:56:12.535Z,0.00
2019-01-20T07:57:12.528Z,0.00
2019-01-20T07:58:12.527Z,0.00
2019-01-20T07:59:12.525Z,0.00
2019-01-20T08:00:12.525Z,0.00
2019-01-20T08:01:12.523Z,0.00
2019-01-20T08:02:12.521Z,0.00
2019-01-20T08:03:12.520Z,0.00
2019-01-20T08:04:12.517Z,0.00
2019-01-20T08:05:12.517Z,0.00
2019-01-20T08:06:12.516Z,0.00
2019-01-20T08:07:12.515Z,0.00
2019-01-20T08:08:12.512Z,0.00
2019-01-20T08:09:12.528Z,0.00
2019-01-20T08:10:12.510Z,0.00
2019-01-20T08:11:12.508Z,0.00
2019-01-20T08:12:12.507Z,0.00
2019-01-20T08:13:12.506Z,0.00
2019-01-20T08:14:12.505Z,0.00
2019-01-20T08:15:12.504Z,0.00
2019-01-20T08:16:12.502Z,0.00
2019-01-20T08:17:12.502Z,0.00
2019-01-20T08:18:12.498Z,0.00
2019-01-20T08:19:12.497Z,0.00
2019-01-20T08:20:12.496Z,0.00
2019-01-20T08:21:12.495Z,0.00
2019-01-20T08:22:12.493Z,0.00
2019-01-20T08:23:12.492Z,0.00
2019-01-20T08:24:12.489Z,0.00
2019-01-20T08:25:12.489Z,0.00
2019-01-20T08:26:12.487Z,0.00
2019-01-20T08:27:12.486Z,0.00
2019-01-20T08:28:12.485Z,0.00
2019-01-20T08:29:12.609Z,0.00
2019-01-20T08:30:12.483Z,0.00
2019-01-20T08:31:12.489Z,0.00
2019-01-20T08:32:12.494Z,0.00
2019-01-20T08:33:12.478Z,0.00
2019-01-20T08:34:12.475Z,0.00
2019-01-20T08:35:12.474Z,0.00
2019-01-20T08:36:12.476Z,0.00
2019-01-20T08:37:12.474Z,0.00
2019-01-20T08:38:12.470Z,0.00
2019-01-20T08:39:12.469Z,0.00
2019-01-20T08:40:12.470Z,0.00
2019-01-20T08:41:12.466Z,0.00
2019-01-20T08:42:12.465Z,0.00
2019-01-20T08:43:12.465Z,0.00
2019-01-20T08:44:12.482Z,0.00
2019-01-20T08:45:12.461Z,0.00
2019-01-20T08:46:12.460Z,0.00
2019-01-20T08:47:12.458Z,0.00
2019-01-20T08:48:12.456Z,0.00
2019-01-20T08:49:12.455Z,0.00
2019-01-20T08:50:12.452Z,0.00
2019-01-20T08:51:12.452Z,0.00
2019-01-20T08:52:12.452Z,0.00
2019-01-20T08:53:12.456Z,0.00
2019-01-20T08:54:12.447Z,0.00
2019-01-20T08:55:12.448Z,0.00
2019-01-20T08:56:12.445Z,0.00
2019-01-20T08:57:12.444Z,0.00
2019-01-20T08:58:12.444Z,0.00
2019-01-20T08:59:12.446Z,0.00
2019-01-20T09:00:12.441Z,0.00
2019-01-20T09:01:12.440Z,0.00
2019-01-20T09:02:12.438Z,0.00
2019-01-20T09:03:12.435Z,0.00
2019-01-20T09:04:12.436Z,0.00
2019-01-20T09:05:12.434Z,0.00
2019-01-20T09:06:12.434Z,0.00
2019-01-20T09:07:12.432Z,0.00
2019-01-20T09:08:12.573Z,0.00
2019-01-20T09:09:12.430Z,0.00
2019-01-20T09:10:12.427Z,0.00
2019-01-20T09:11:12.425Z,0.00
2019-01-20T09:12:12.425Z,0.00
2019-01-20T09:13:12.425Z,0.00
2019-01-20T09:14:12.433Z,0.00
2019-01-20T09:15:12.421Z,0.00
2019-01-20T09:16:12.421Z,4.00
2019-01-20T09:17:12.420Z,0.00
2019-01-20T09:18:12.416Z,0.00
2019-01-20T09:19:12.416Z,0.00
2019-01-20T09:20:12.411Z,0.00
2019-01-20T09:21:12.409Z,0.00
2019-01-20T09:22:12.409Z,0.00
2019-01-20T09:23:12.407Z,4.00
2019-01-20T09:24:12.406Z,4.00
2019-01-20T09:25:12.409Z,0.00
2019-01-20T09:26:12.402Z,0.00
2019-01-20T09:27:12.401Z,0.00
2019-01-20T09:28:12.402Z,0.00
2019-01-20T09:29:12.399Z,0.00
2019-01-20T09:30:12.396Z,4.00
2019-01-20T09:31:12.393Z,0.00
2019-01-20T09:32:12.394Z,0.00
2019-01-20T09:33:12.390Z,0.00
2019-01-20T09:34:12.386Z,0.00
2019-01-20T09:35:12.387Z,0.00
2019-01-20T09:36:12.382Z,4.00
2019-01-20T09:37:12.395Z,4.00
2019-01-20T09:38:12.377Z,0.00
2019-01-20T09:39:12.376Z,0.00
2019-01-20T09:40:12.375Z,0.00
2019-01-20T09:41:12.373Z,4.00
2019-01-20T09:42:12.371Z,0.00
2019-01-20T09:43:12.368Z,0.00
2019-01-20T09:44:12.367Z,4.00
2019-01-20T09:45:12.365Z,4.00
2019-01-20T09:46:12.364Z,4.00
2019-01-20T09:47:12.361Z,0.00
2019-01-20T09:48:12.360Z,0.00
2019-01-20T09:49:12.358Z,4.00
2019-01-20T09:50:12.355Z,4.00
2019-01-20T09:51:12.353Z,4.00
2019-01-20T09:52:12.351Z,4.00
2019-01-20T09:53:12.350Z,0.00
2019-01-20T09:54:12.347Z,4.00
2019-01-20T09:55:12.344Z,4.00
2019-01-20T09:56:12.344Z,4.00
2019-01-20T09:57:12.343Z,4.00
2019-01-20T09:58:12.340Z,4.00
2019-01-20T09:59:12.338Z,4.00
2019-01-20T10:00:12.339Z,4.00
2019-01-20T10:01:12.335Z,4.00
2019-01-20T10:02:12.337Z,4.00
2019-01-20T10:03:16.277Z,4.00
2019-01-20T10:04:12.329Z,4.00
2019-01-20T10:05:12.326Z,4.00
2019-01-20T10:06:12.324Z,4.00
2019-01-20T10:07:12.324Z,4.00
2019-01-20T10:08:12.323Z,0.00
2019-01-20T10:09:12.322Z,0.00
2019-01-20T10:10:12.318Z,4.00
2019-01-20T10:11:12.317Z,4.00
2019-01-20T10:12:12.315Z,0.00
2019-01-20T10:13:12.316Z,4.00
2019-01-20T10:14:12.316Z,4.00
2019-01-20T10:15:12.312Z,4.00
2019-01-20T10:16:12.310Z,4.00
2019-01-20T10:17:12.310Z,196.00
2019-01-20T10:18:12.307Z,216.00
2019-01-20T10:19:12.308Z,204.00
2019-01-20T10:20:12.308Z,208.00
2019-01-20T10:21:12.309Z,136.00
2019-01-20T10:22:12.309Z,176.00
2019-01-20T10:23:12.310Z,196.00
2019-01-20T10:24:12.307Z,200.00
2019-01-20T10:25:15.208Z,208.00
2019-01-20T10:26:12.315Z,204.00
2019-01-20T10:27:12.312Z,212.00
2019-01-20T10:28:12.314Z,224.00
2019-01-20T10:29:12.311Z,228.00
2019-01-20T10:30:12.309Z,232.00
2019-01-20T10:31:12.311Z,240.00
2019-01-20T10:32:12.309Z,240.00
2019-01-20T10:33:12.310Z,240.00
2019-01-20T10:34:12.311Z,244.00
2019-01-20T10:35:12.310Z,248.00
2019-01-20T10:36:12.310Z,248.00
2019-01-20T10:37:12.311Z,252.00
2019-01-20T10:38:12.310Z,244.00
2019-01-20T10:39:12.310Z,184.00
2019-01-20T10:40:12.311Z,232.00
2019-01-20T10:41:12.314Z,264.00
2019-01-20T10:42:12.313Z,268.00
2019-01-20T10:43:12.311Z,272.00
2019-01-20T10:44:12.311Z,280.00
2019-01-20T10:45:12.312Z,292.00
2019-01-20T11:38:39.165Z,348.00
2019-01-20T11:39:39.165Z,348.00
2019-01-20T11:40:39.162Z,396.00
2019-01-20T11:41:39.168Z,376.00
2019-01-20T11:42:39.208Z,368.00
2019-01-20T11:43:39.163Z,352.00
2019-01-20T11:44:39.164Z,372.00
2019-01-20T11:45:39.168Z,416.00
2019-01-20T11:46:39.166Z,316.00
2019-01-20T11:47:41.999Z,492.00
2019-01-20T11:48:39.169Z,480.00
2019-01-20T11:49:39.170Z,488.00
2019-01-20T11:50:39.172Z,492.00
2019-01-20T11:51:39.174Z,384.00
2019-01-20T11:52:39.174Z,308.00
2019-01-20T11:53:39.176Z,296.00
2019-01-20T11:54:39.179Z,320.00
2019-01-20T11:55:39.179Z,416.00
2019-01-20T11:56:39.180Z,424.00
2019-01-20T11:57:39.180Z,400.00
2019-01-20T11:58:39.183Z,376.00
2019-01-20T11:59:39.184Z,356.00
2019-01-20T12:00:39.184Z,332.00
2019-01-20T12:01:39.187Z,312.00
2019-01-20T12:02:39.186Z,296.00
2019-01-20T12:03:39.189Z,292.00
2019-01-20T12:04:39.188Z,292.00
2019-01-20T12:05:39.190Z,300.00
2019-01-20T12:06:39.192Z,296.00
2019-01-20T12:07:39.192Z,304.00
2019-01-20T12:08:39.194Z,276.00
2019-01-20T12:09:39.193Z,240.00
2019-01-20T12:10:39.195Z,220.00
2019-01-20T12:11:39.195Z,208.00
2019-01-20T12:12:39.196Z,204.00
2019-01-20T12:13:39.238Z,196.00
2019-01-20T12:14:39.198Z,192.00
2019-01-20T12:15:39.199Z,208.00
2019-01-20T12:16:39.197Z,236.00
2019-01-20T12:17:39.200Z,240.00
2019-01-20T12:18:39.199Z,256.00
2019-01-20T12:19:39.199Z,260.00
2019-01-20T12:20:39.200Z,264.00
2019-01-20T12:21:39.201Z,256.00
2019-01-20T12:22:39.206Z,236.00
2019-01-20T12:23:39.202Z,248.00
2019-01-20T12:24:39.203Z,256.00
2019-01-20T12:25:39.203Z,256.00
2019-01-20T12:26:39.202Z,252.00
2019-01-20T12:27:39.204Z,240.00
2019-01-20T12:28:39.254Z,236.00
2019-01-20T12:29:39.204Z,236.00
2019-01-20T12:30:39.203Z,248.00
2019-01-20T12:31:39.204Z,260.00
2019-01-20T12:32:39.206Z,272.00
2019-01-20T12:33:39.204Z,276.00
2019-01-20T12:34:39.205Z,268.00
2019-01-20T12:35:39.206Z,264.00
2019-01-20T12:36:39.208Z,260.00
2019-01-20T12:37:39.207Z,256.00
2019-01-20T12:38:39.297Z,248.00
2019-01-20T12:39:39.207Z,236.00
2019-01-20T12:40:39.207Z,228.00
2019-01-20T12:41:39.210Z,224.00
2019-01-20T12:42:39.208Z,216.00
2019-01-20T12:43:39.209Z,212.00
2019-01-20T12:44:39.208Z,204.00
2019-01-20T12:45:39.208Z,200.00
2019-01-20T12:46:39.208Z,196.00
2019-01-20T12:47:39.209Z,192.00
2019-01-20T12:48:39.208Z,192.00
2019-01-20T12:49:39.209Z,180.00
2019-01-20T12:50:39.208Z,184.00
2019-01-20T12:51:39.209Z,184.00
2019-01-20T12:52:39.209Z,180.00
2019-01-20T12:53:39.209Z,176.00
2019-01-20T12:54:39.210Z,176.00
2019-01-20T12:55:39.209Z,180.00
2019-01-20T12:56:39.208Z,184.00
2019-01-20T12:57:39.209Z,188.00
2019-01-20T12:58:39.208Z,192.00
2019-01-20T12:59:39.209Z,172.00
2019-01-20T13:00:39.210Z,184.00
2019-01-20T13:01:39.208Z,168.00
2019-01-20T13:02:39.209Z,160.00
2019-01-20T13:15:48.732Z,64.00
2019-01-20T13:16:48.722Z,60.00
2019-01-20T13:17:48.726Z,56.00
2019-01-20T13:18:48.720Z,52.00
2019-01-20T13:19:48.721Z,48.00
2019-01-20T13:20:48.719Z,52.00
2019-01-20T13:21:48.721Z,44.00
2019-01-20T13:22:48.733Z,48.00
2019-01-20T13:23:48.724Z,44.00
2019-01-20T13:24:48.727Z,40.00
2019-01-20T13:25:48.729Z,40.00
2019-01-20T13:26:48.732Z,44.00
2019-01-20T13:27:48.746Z,40.00
2019-01-20T13:28:48.739Z,40.00
2019-01-20T13:29:48.747Z,36.00
2019-01-20T13:30:48.744Z,36.00
2019-01-20T13:31:48.749Z,36.00
2019-01-20T13:32:48.752Z,32.00
2019-01-20T13:33:48.757Z,32.00
2019-01-20T13:34:48.761Z,32.00
2019-01-20T13:35:48.763Z,32.00
2019-01-20T13:36:48.769Z,32.00
2019-01-20T13:37:48.774Z,28.00
2019-01-20T13:38:48.777Z,28.00
2019-01-20T13:39:48.780Z,28.00
2019-01-20T13:40:48.785Z,28.00
2019-01-20T13:41:48.792Z,28.00
2019-01-20T13:42:48.793Z,24.00
2019-01-20T13:43:48.799Z,24.00
2019-01-20T13:44:48.802Z,20.00
2019-01-20T13:45:48.807Z,24.00
2019-01-20T13:46:48.812Z,20.00
2019-01-20T13:47:49.117Z,20.00
2019-01-20T13:48:48.821Z,20.00
2019-01-20T13:49:48.825Z,16.00
2019-01-20T13:50:48.831Z,20.00
2019-01-20T13:51:48.835Z,16.00
2019-01-20T13:52:48.840Z,16.00
2019-01-20T13:53:48.844Z,12.00
2019-01-20T13:54:48.850Z,16.00
2019-01-20T13:55:48.854Z,16.00
2019-01-20T13:56:48.857Z,12.00
2019-01-20T13:57:48.863Z,12.00
2019-01-20T13:58:48.868Z,12.00
2019-01-20T13:59:48.872Z,12.00
2019-01-20T14:00:49.740Z,8.00
2019-01-20T14:01:48.884Z,12.00
2019-01-20T14:02:48.888Z,8.00
2019-01-20T14:03:48.893Z,8.00
2019-01-20T14:04:48.907Z,8.00
2019-01-20T14:05:48.901Z,8.00
2019-01-20T14:06:48.907Z,8.00
2019-01-20T14:07:48.915Z,4.00
2019-01-20T14:08:48.916Z,8.00
2019-01-20T14:09:48.922Z,4.00
2019-01-20T14:10:49.050Z,4.00
2019-01-20T14:11:48.946Z,8.00
2019-01-20T14:12:48.937Z,4.00
2019-01-20T14:13:48.942Z,4.00
2019-01-20T14:14:53.912Z,4.00
2019-01-20T14:15:48.954Z,0.00
2019-01-20T14:16:48.956Z,4.00
2019-01-20T14:17:48.961Z,4.00
2019-01-20T14:18:48.966Z,4.00
2019-01-20T14:19:48.973Z,0.00
2019-01-20T14:20:48.976Z,0.00
2019-01-20T14:21:48.983Z,0.00
2019-01-20T14:22:48.987Z,4.00
2019-01-20T14:23:48.992Z,4.00
2019-01-20T14:24:48.996Z,4.00
2019-01-20T14:25:49.001Z,0.00
2019-01-20T14:26:49.008Z,0.00
2019-01-20T14:27:49.013Z,0.00
2019-01-20T14:28:49.017Z,0.00
2019-01-20T14:29:49.021Z,0.00
2019-01-20T14:30:49.027Z,4.00
2019-01-20T14:31:49.034Z,0.00
2019-01-20T14:32:49.037Z,0.00
2019-01-20T14:33:49.042Z,0.00
2019-01-20T14:34:49.047Z,0.00
2019-01-20T14:35:49.053Z,0.00
2019-01-20T14:36:49.057Z,0.00
2019-01-20T14:37:49.063Z,0.00
2019-01-20T14:38:49.069Z,0.00
2019-01-20T14:39:49.075Z,0.00
2019-01-20T14:40:49.076Z,0.00
2019-01-20T14:41:49.081Z,0.00
2019-01-20T14:42:49.091Z,0.00
2019-01-20T14:43:49.094Z,0.00
2019-01-20T14:44:49.099Z,0.00
2019-01-20T14:45:49.103Z,0.00
2019-01-20T14:46:49.109Z,0.00
2019-01-20T14:47:49.116Z,0.00
2019-01-20T14:48:49.119Z,0.00
2019-01-20T14:49:49.124Z,0.00
2019-01-20T14:50:49.130Z,0.00
2019-01-20T14:51:49.135Z,0.00
2019-01-20T14:52:49.140Z,0.00
2019-01-20T14:53:49.145Z,0.00
2019-01-20T14:54:49.180Z,0.00
2019-01-20T14:55:49.160Z,0.00
2019-01-20T14:56:49.167Z,0.00
2019-01-20T14:57:49.167Z,0.00
2019-01-20T14:58:49.172Z,0.00
2019-01-20T14:59:49.180Z,0.00
2019-01-20T15:00:49.197Z,0.00
2019-01-20T15:01:49.186Z,0.00
2019-01-20T15:02:49.194Z,0.00
2019-01-20T15:03:49.198Z,0.00
2019-01-20T15:04:49.209Z,0.00
2019-01-20T15:05:49.210Z,0.00
2019-01-20T15:06:49.215Z,0.00
2019-01-20T15:07:49.221Z,0.00
2019-01-20T15:08:49.178Z,0.00
2019-01-20T15:09:49.234Z,0.00
2019-01-20T15:10:49.238Z,0.00
2019-01-20T15:11:49.247Z,0.00
2019-01-20T15:12:50.270Z,0.00
2019-01-20T15:13:49.254Z,0.00
2019-01-20T15:14:49.261Z,0.00
2019-01-20T15:15:49.266Z,0.00
2019-01-20T15:16:49.270Z,0.00
2019-01-20T15:17:49.275Z,0.00
2019-01-20T15:18:49.281Z,0.00
2019-01-20T15:19:49.288Z,0.00
2019-01-20T15:20:49.291Z,0.00
2019-01-20T15:21:49.298Z,0.00
2019-01-20T15:22:49.303Z,0.00
2019-01-20T15:23:49.342Z,0.00
2019-01-20T15:24:49.314Z,0.00
2019-01-20T15:25:49.318Z,0.00
2019-01-20T15:26:49.324Z,0.00
2019-01-20T15:27:49.330Z,0.00
2019-01-20T15:28:49.336Z,8.00
2019-01-20T15:29:49.345Z,4.00
2019-01-20T15:30:49.347Z,8.00
2019-01-20T15:31:49.353Z,8.00
2019-01-20T15:32:49.357Z,0.00
2019-01-20T15:33:49.365Z,0.00
2019-01-20T15:34:49.373Z,0.00
2019-01-20T15:35:49.375Z,0.00
2019-01-20T15:36:49.380Z,0.00
2019-01-20T15:37:49.385Z,0.00
2019-01-20T15:38:49.391Z,0.00
2019-01-20T15:39:49.397Z,0.00
2019-01-20T15:40:49.401Z,0.00
2019-01-20T15:41:49.408Z,0.00
2019-01-20T15:42:49.413Z,0.00
2019-01-20T15:43:49.487Z,0.00
2019-01-20T15:44:49.424Z,0.00
2019-01-20T15:45:49.429Z,0.00
2019-01-20T15:46:49.436Z,0.00
2019-01-20T15:47:49.441Z,0.00
2019-01-20T15:48:49.447Z,0.00
2019-01-20T15:49:49.450Z,0.00
2019-01-20T15:50:49.455Z,0.00
2019-01-20T15:51:49.464Z,0.00
2019-01-20T15:52:49.466Z,0.00
2019-01-20T15:53:49.474Z,0.00
2019-01-20T15:54:49.478Z,0.00
2019-01-20T15:55:49.483Z,0.00
2019-01-20T15:56:49.487Z,0.00
2019-01-20T15:57:49.494Z,0.00
2019-01-20T15:58:49.499Z,0.00
2019-01-20T15:59:49.505Z,0.00
2019-01-20T16:00:49.509Z,0.00
2019-01-20T16:01:49.515Z,0.00
2019-01-20T16:02:49.519Z,0.00
2019-01-20T16:03:49.525Z,0.00
2019-01-20T16:04:49.530Z,0.00
2019-01-20T16:05:49.535Z,0.00
2019-01-20T16:06:49.541Z,0.00
2019-01-20T16:07:49.550Z,0.00
2019-01-20T16:08:49.551Z,0.00
2019-01-20T16:09:49.559Z,0.00
2019-01-20T16:10:49.560Z,0.00
2019-01-20T16:11:49.569Z,0.00
2019-01-20T16:12:49.572Z,0.00
2019-01-20T16:13:49.577Z,0.00
2019-01-20T16:14:49.583Z,0.00
2019-01-20T16:15:49.588Z,0.00
2019-01-20T16:16:49.592Z,0.00
2019-01-20T16:17:49.598Z,0.00
2019-01-20T16:18:49.604Z,0.00
2019-01-20T16:19:49.609Z,0.00
2019-01-20T16:20:49.613Z,0.00
2019-01-20T16:21:49.619Z,0.00
2019-01-20T16:22:49.625Z,0.00
2019-01-20T16:23:49.631Z,0.00
2019-01-20T16:24:49.635Z,0.00
2019-01-20T16:25:49.642Z,0.00
2019-01-20T16:26:49.647Z,0.00
2019-01-20T16:27:49.657Z,0.00
2019-01-20T16:28:49.659Z,0.00
2019-01-20T16:29:49.663Z,0.00
2019-01-20T16:30:49.667Z,0.00
2019-01-20T16:31:49.673Z,0.00
2019-01-20T16:32:49.677Z,0.00
2019-01-20T16:33:49.681Z,0.00
2019-01-20T16:34:49.688Z,0.00
2019-01-20T16:35:49.695Z,0.00
2019-01-20T16:36:49.698Z,0.00
2019-01-20T16:37:49.703Z,0.00
2019-01-20T16:38:49.715Z,0.00
2019-01-20T16:39:49.724Z,0.00
2019-01-20T16:40:49.718Z,0.00
2019-01-20T16:41:49.730Z,0.00
2019-01-20T16:42:49.734Z,0.00
2019-01-20T16:43:49.746Z,0.00
2019-01-20T16:44:49.742Z,0.00
2019-01-20T16:45:49.749Z,0.00
2019-01-20T16:46:49.753Z,0.00
2019-01-20T16:47:49.756Z,0.00
2019-01-20T16:48:49.762Z,0.00
2019-01-20T16:49:49.767Z,0.00
2019-01-20T16:50:49.774Z,0.00
2019-01-20T16:51:49.777Z,0.00
2019-01-20T16:52:54.582Z,0.00
2019-01-20T16:53:49.787Z,0.00
2019-01-20T16:54:49.794Z,0.00
2019-01-20T16:55:49.799Z,0.00
2019-01-20T16:56:49.807Z,0.00
2019-01-20T16:57:49.857Z,0.00
2019-01-20T16:58:51.413Z,0.00
2019-01-20T16:59:49.820Z,0.00
2019-01-20T17:00:49.824Z,0.00
2019-01-20T17:01:49.830Z,0.00
2019-01-20T17:02:49.836Z,0.00
2019-01-20T17:03:49.843Z,0.00
2019-01-20T17:04:49.845Z,0.00
2019-01-20T17:05:49.851Z,0.00
2019-01-20T17:06:49.857Z,0.00
2019-01-20T17:07:49.861Z,0.00
2019-01-20T17:08:49.865Z,0.00
2019-01-20T17:09:49.872Z,0.00
2019-01-20T17:10:49.878Z,0.00
2019-01-20T17:11:49.883Z,0.00
2019-01-20T17:12:49.887Z,0.00
2019-01-20T17:13:49.893Z,0.00
2019-01-20T17:14:49.897Z,0.00
2019-01-20T17:15:49.903Z,0.00
2019-01-20T17:16:49.909Z,0.00
2019-01-20T17:17:49.914Z,0.00
2019-01-20T17:18:49.923Z,0.00
2019-01-20T17:19:49.927Z,0.00
2019-01-20T17:20:49.929Z,0.00
2019-01-20T17:21:49.935Z,0.00
2019-01-20T17:22:49.941Z,0.00
2019-01-20T17:23:49.946Z,0.00
2019-01-20T17:24:49.953Z,0.00
2019-01-20T17:25:49.956Z,0.00
2019-01-20T17:26:49.961Z,4.00
2019-01-20T17:27:49.967Z,4.00
2019-01-20T17:28:49.973Z,4.00
2019-01-20T17:29:49.978Z,4.00
2019-01-20T17:30:49.983Z,4.00
2019-01-20T17:31:49.990Z,4.00
2019-01-20T17:32:49.994Z,4.00
2019-01-20T17:33:49.999Z,4.00
2019-01-20T17:34:50.005Z,4.00
2019-01-20T17:35:50.012Z,4.00
2019-01-20T17:36:50.015Z,4.00
2019-01-20T17:37:50.022Z,4.00
2019-01-20T17:38:50.027Z,4.00
2019-01-20T17:39:50.032Z,4.00
2019-01-20T17:40:50.038Z,4.00
2019-01-20T17:41:50.041Z,4.00
2019-01-20T17:42:50.048Z,4.00
2019-01-20T17:43:50.054Z,4.00
2019-01-20T17:44:50.058Z,4.00
2019-01-20T17:45:50.134Z,4.00
2019-01-20T17:46:50.068Z,4.00
2019-01-20T17:47:50.073Z,4.00
2019-01-20T17:48:50.079Z,4.00
2019-01-20T17:49:50.085Z,4.00
2019-01-20T17:50:50.092Z,4.00
2019-01-20T17:51:50.094Z,4.00
2019-01-20T17:52:50.103Z,4.00
2019-01-20T17:53:50.107Z,4.00
2019-01-20T17:54:50.109Z,0.00
2019-01-20T17:55:50.117Z,4.00
2019-01-20T17:56:50.121Z,4.00
2019-01-20T17:57:50.132Z,4.00
2019-01-20T17:58:50.132Z,4.00
2019-01-20T17:59:50.137Z,4.00
2019-01-20T18:00:50.140Z,4.00
2019-01-20T18:01:50.146Z,4.00
2019-01-20T18:02:50.151Z,4.00
2019-01-20T18:03:50.157Z,4.00
2019-01-20T18:04:50.162Z,4.00
2019-01-20T18:05:50.168Z,4.00
2019-01-20T18:06:50.173Z,4.00
2019-01-20T18:07:50.177Z,4.00
2019-01-20T18:08:50.188Z,4.00
2019-01-20T18:09:50.190Z,4.00
2019-01-20T18:10:50.194Z,4.00
2019-01-20T18:11:50.200Z,4.00
2019-01-20T18:12:50.204Z,4.00
2019-01-20T18:13:50.211Z,4.00
2019-01-20T18:14:50.217Z,4.00
2019-01-20T18:15:54.299Z,4.00
2019-01-20T18:16:50.227Z,4.00
2019-01-20T18:17:50.231Z,0.00
2019-01-20T18:18:50.237Z,0.00
2019-01-20T18:19:50.291Z,0.00
2019-01-20T18:20:50.247Z,0.00
2019-01-20T18:21:50.253Z,0.00
2019-01-20T18:22:50.258Z,0.00
2019-01-20T18:23:50.320Z,0.00
2019-01-20T18:24:50.268Z,0.00
2019-01-20T18:25:50.273Z,0.00
2019-01-20T18:26:50.278Z,0.00
2019-01-20T18:27:50.286Z,0.00
2019-01-20T18:28:50.289Z,0.00
2019-01-20T18:29:50.295Z,0.00
2019-01-20T18:30:50.300Z,0.00
2019-01-20T18:31:50.306Z,0.00
2019-01-20T18:32:50.324Z,0.00
2019-01-20T18:33:50.367Z,0.00
2019-01-20T18:34:50.323Z,0.00
2019-01-20T18:35:50.327Z,0.00
2019-01-20T18:36:50.333Z,0.00
2019-01-20T18:37:50.337Z,0.00
2019-01-20T18:38:50.341Z,0.00
2019-01-20T18:39:50.348Z,0.00
2019-01-20T18:40:50.353Z,0.00
2019-01-20T18:41:50.356Z,0.00
2019-01-20T18:42:50.363Z,0.00
2019-01-20T18:43:50.367Z,0.00
2019-01-20T18:44:50.372Z,0.00
2019-01-20T18:45:50.379Z,0.00
2019-01-20T18:46:50.383Z,0.00
2019-01-20T18:47:50.387Z,0.00
2019-01-20T18:48:50.392Z,0.00
2019-01-20T18:49:50.399Z,0.00
2019-01-20T18:50:50.407Z,0.00
2019-01-20T18:51:50.409Z,0.00
2019-01-20T18:52:50.412Z,0.00
2019-01-20T18:53:50.421Z,0.00
2019-01-20T18:54:50.425Z,0.00
2019-01-20T18:55:50.430Z,0.00
2019-01-20T18:56:50.434Z,0.00
2019-01-20T18:57:50.442Z,0.00
2019-01-20T18:58:50.444Z,0.00
2019-01-20T18:59:50.452Z,0.00
2019-01-20T19:00:50.460Z,0.00
2019-01-20T19:01:50.459Z,0.00
2019-01-20T19:02:50.465Z,0.00
2019-01-20T19:03:50.472Z,0.00
2019-01-20T19:04:50.476Z,0.00
2019-01-20T19:05:50.481Z,0.00
2019-01-20T19:06:50.486Z,0.00
2019-01-20T19:07:55.373Z,0.00
2019-01-20T19:08:50.497Z,0.00
2019-01-20T19:09:50.500Z,0.00
2019-01-20T19:10:50.508Z,0.00
2019-01-20T19:11:50.517Z,0.00
2019-01-20T19:12:50.517Z,0.00
2019-01-20T19:13:50.522Z,0.00
2019-01-20T19:14:50.528Z,0.00
2019-01-20T19:15:50.533Z,0.00
2019-01-20T19:16:50.540Z,0.00
2019-01-20T19:17:50.544Z,0.00
2019-01-20T19:18:50.553Z,0.00
2019-01-20T19:19:50.557Z,0.00
2019-01-20T19:20:50.559Z,0.00
2019-01-20T19:21:50.565Z,0.00
2019-01-20T19:22:50.570Z,0.00
2019-01-20T19:23:50.575Z,0.00
2019-01-20T19:24:50.582Z,0.00
2019-01-20T19:25:50.585Z,0.00
2019-01-20T19:26:50.590Z,0.00
2019-01-20T19:27:50.599Z,0.00
2019-01-20T19:28:50.599Z,0.00
2019-01-20T19:29:50.609Z,0.00
2019-01-20T19:30:50.611Z,0.00
2019-01-20T19:31:50.619Z,0.00
2019-01-20T19:32:50.620Z,0.00
2019-01-20T19:33:50.626Z,0.00
2019-01-20T19:34:50.697Z,0.00
2019-01-20T19:35:50.806Z,0.00
2019-01-20T19:36:50.643Z,0.00
2019-01-20T19:37:50.648Z,0.00
2019-01-20T19:38:50.653Z,0.00
2019-01-20T19:39:50.835Z,0.00
2019-01-20T19:40:50.665Z,0.00
2019-01-20T19:41:50.670Z,0.00
2019-01-20T19:42:50.674Z,0.00
2019-01-20T19:43:50.679Z,0.00
2019-01-20T19:44:50.683Z,0.00
2019-01-20T19:45:50.688Z,0.00
2019-01-20T19:46:50.693Z,0.00
2019-01-20T19:47:50.699Z,0.00
2019-01-20T19:48:50.704Z,0.00
2019-01-20T19:49:50.708Z,0.00
2019-01-20T19:50:50.715Z,0.00
2019-01-20T19:51:50.720Z,0.00
2019-01-20T19:52:50.731Z,0.00
2019-01-20T19:53:50.729Z,0.00
2019-01-20T19:54:50.734Z,0.00
2019-01-20T19:55:50.740Z,0.00
2019-01-20T19:56:50.744Z,0.00
2019-01-20T19:57:50.751Z,0.00
2019-01-20T19:58:50.756Z,0.00
2019-01-20T19:59:50.762Z,0.00
2019-01-20T20:00:50.764Z,0.00
2019-01-20T20:01:50.770Z,0.00
2019-01-20T20:02:50.777Z,0.00
2019-01-20T20:03:50.782Z,0.00
2019-01-20T20:04:50.787Z,0.00
2019-01-20T20:05:50.791Z,0.00
2019-01-20T20:06:50.800Z,0.00
2019-01-20T20:07:50.804Z,0.00
2019-01-20T20:08:50.807Z,0.00
2019-01-20T20:09:50.812Z,0.00
2019-01-20T20:10:50.819Z,0.00
2019-01-20T20:11:50.824Z,0.00
2019-01-20T20:12:50.828Z,0.00
2019-01-20T20:13:50.835Z,0.00
2019-01-20T20:14:50.922Z,0.00
2019-01-20T20:15:50.844Z,0.00
2019-01-20T20:16:50.849Z,0.00
2019-01-20T20:17:50.854Z,0.00
2019-01-20T20:18:50.858Z,0.00
2019-01-20T20:19:50.864Z,0.00
2019-01-20T20:20:50.870Z,0.00
2019-01-20T20:21:50.874Z,0.00
2019-01-20T20:22:50.880Z,0.00
2019-01-20T20:23:50.886Z,0.00
2019-01-20T20:24:50.891Z,0.00
2019-01-20T20:25:50.896Z,0.00
2019-01-20T20:26:50.902Z,0.00
2019-01-20T20:27:50.974Z,0.00
2019-01-20T20:28:50.911Z,0.00
2019-01-20T20:29:50.918Z,0.00
2019-01-20T20:30:50.926Z,0.00
2019-01-20T20:31:50.927Z,0.00
2019-01-20T20:32:50.933Z,0.00
2019-01-20T20:33:50.958Z,0.00
2019-01-20T20:34:53.755Z,0.00
2019-01-20T20:35:50.950Z,0.00
2019-01-20T20:36:50.953Z,0.00
2019-01-20T20:37:50.964Z,0.00
2019-01-20T20:38:50.964Z,0.00
2019-01-20T20:39:51.025Z,0.00
2019-01-20T20:40:50.974Z,0.00
2019-01-20T20:41:50.980Z,0.00
2019-01-20T20:42:50.985Z,0.00
2019-01-20T20:43:50.989Z,0.00
2019-01-20T20:44:50.996Z,0.00
2019-01-20T20:45:51.000Z,0.00
2019-01-20T20:46:51.006Z,0.00